createdAt,value
2023-01-03T00:02:02.872Z,27.29
2023-01-03T00:04:29.877Z,26.00
2023-01-03T00:06:56.596Z,24.35
2023-01-03T00:09:25.246Z,27.16
2023-01-03T00:12:12.242Z,27.19
2023-01-03T00:14:42.411Z,28.50
2023-01-03T00:19:40.580Z,27.11
2023-01-03T00:22:08.061Z,25.61
2023-01-03T00:24:35.959Z,26.62
2023-01-03T00:27:02.711Z,27.26
2023-01-03T00:29:30.010Z,25.96
2023-01-03T00:31:57.287Z,26.57
2023-01-03T00:34:24.338Z,27.64
2023-01-03T00:36:51.615Z,27.77
2023-01-03T00:39:18.492Z,25.47
2023-01-03T00:41:45.234Z,26.48
2023-01-03T00:44:12.613Z,25.97
2023-01-03T00:46:39.477Z,27.12
2023-01-03T00:49:07.211Z,27.30
2023-01-03T00:51:36.463Z,27.28
2023-01-03T00:54:05.571Z,27.75
2023-01-03T00:56:37.885Z,26.03
2023-01-03T00:59:06.920Z,28.32
2023-01-03T01:01:45.773Z,26.54
2023-01-03T01:04:15.793Z,26.40
2023-01-03T01:06:50.521Z,26.48
2023-01-03T01:09:23.518Z,25.18
2023-01-03T01:11:51.922Z,26.79
2023-01-03T01:14:23.686Z,27.86
2023-01-03T01:16:59.095Z,25.68
2023-01-03T01:19:33.546Z,25.38
2023-01-03T01:22:00.923Z,27.53
2023-01-03T01:24:27.665Z,26.13
2023-01-03T01:26:54.430Z,25.44
2023-01-03T01:29:22.647Z,26.67
2023-01-03T01:31:50.841Z,26.96
2023-01-03T01:34:18.199Z,25.97
2023-01-03T01:36:46.055Z,26.42
2023-01-03T01:39:17.654Z,26.58
2023-01-03T01:42:05.334Z,27.06
2023-01-03T01:44:48.010Z,26.28
2023-01-03T01:47:23.625Z,25.04
2023-01-03T01:49:56.584Z,28.39
2023-01-03T01:52:25.136Z,28.73
2023-01-03T01:54:54.580Z,28.46
2023-01-03T01:57:24.520Z,28.19
2023-01-03T01:59:52.275Z,27.64
2023-01-03T02:02:22.418Z,30.50
2023-01-03T02:04:52.849Z,29.30
2023-01-03T02:07:22.992Z,28.07
2023-01-03T02:09:53.457Z,27.13
2023-01-03T02:13:07.496Z,28.66
2023-01-03T02:15:52.847Z,29.07
2023-01-03T02:18:53.496Z,26.30
2023-01-03T02:21:32.449Z,28.80
2023-01-03T02:24:17.192Z,27.65
2023-01-03T02:26:55.608Z,27.45
2023-01-03T02:29:40.815Z,27.30
2023-01-03T02:32:18.423Z,27.72
2023-01-03T02:35:03.792Z,27.16
2023-01-03T02:37:53.483Z,27.23
2023-01-03T02:40:37.524Z,26.35
2023-01-03T02:43:37.560Z,26.66
2023-01-03T02:46:09.711Z,28.62
2023-01-03T02:48:39.509Z,28.08
2023-01-03T02:51:14.373Z,28.17
2023-01-03T02:53:46.564Z,27.58
2023-01-03T02:56:22.650Z,28.31
2023-01-03T02:58:56.913Z,28.38
2023-01-03T03:01:25.184Z,28.16
2023-01-03T03:03:53.034Z,29.04
2023-01-03T03:06:47.721Z,31.61
2023-01-03T03:09:14.432Z,31.13
2023-01-03T03:12:02.752Z,31.10
2023-01-03T03:14:43.926Z,30.35
2023-01-03T03:17:16.218Z,29.37
2023-01-03T03:20:06.288Z,27.76
2023-01-03T03:23:01.830Z,31.22
2023-01-03T03:25:33.709Z,28.36
2023-01-03T03:28:26.475Z,28.57
2023-01-03T03:30:56.724Z,27.83
2023-01-03T03:33:26.535Z,27.72
2023-01-03T03:35:59.197Z,29.99
2023-01-03T03:38:38.199Z,28.22
2023-01-03T03:41:54.639Z,29.21
2023-01-03T03:44:53.780Z,28.84
2023-01-03T03:47:36.596Z,28.16
2023-01-03T03:50:14.495Z,30.26
2023-01-03T03:52:46.632Z,29.69
2023-01-03T03:55:17.828Z,28.19
2023-01-03T03:57:53.294Z,28.16
2023-01-03T04:00:25.237Z,29.08
2023-01-03T04:02:54.617Z,26.53
2023-01-03T04:05:24.714Z,28.60
2023-01-03T04:07:51.899Z,27.56
2023-01-03T04:10:21.997Z,26.08
2023-01-03T04:12:50.058Z,27.79
2023-01-03T04:15:17.899Z,26.84
2023-01-03T04:17:44.631Z,26.33
2023-01-03T04:20:12.587Z,25.43
2023-01-03T04:22:39.411Z,26.55
2023-01-03T04:25:06.843Z,27.98
2023-01-03T04:27:34.260Z,27.20
2023-01-03T04:30:01.009Z,26.67
2023-01-03T04:32:27.956Z,25.57
2023-01-03T04:34:54.750Z,26.04
2023-01-03T04:37:22.298Z,27.77
2023-01-03T04:39:49.136Z,26.46
2023-01-03T04:42:34.756Z,26.14
2023-01-03T04:45:01.768Z,26.19
2023-01-03T04:47:28.513Z,25.80
2023-01-03T04:49:55.214Z,27.51
2023-01-03T04:52:22.141Z,25.07
2023-01-03T04:54:49.215Z,24.69
2023-01-03T04:57:16.227Z,26.40
2023-01-03T04:59:43.135Z,24.48
2023-01-03T05:02:10.184Z,24.71
2023-01-03T05:04:37.230Z,23.47
2023-01-03T05:07:04.351Z,24.89
2023-01-03T05:09:31.121Z,24.78
2023-01-03T05:11:58.015Z,24.30
2023-01-03T05:14:24.753Z,23.81
2023-01-03T05:16:52.247Z,26.86
2023-01-03T05:19:19.836Z,26.21
2023-01-03T05:22:05.032Z,26.33
2023-01-03T05:24:50.556Z,26.04
2023-01-03T05:27:18.099Z,24.67
2023-01-03T05:29:48.417Z,24.20
2023-01-03T05:32:15.204Z,25.20
2023-01-03T05:34:41.976Z,25.60
2023-01-03T05:37:09.428Z,24.23
2023-01-03T05:39:36.123Z,23.77
2023-01-03T05:42:03.031Z,24.53
2023-01-03T05:44:32.603Z,23.63
2023-01-03T05:47:00.451Z,23.76
2023-01-03T05:49:27.343Z,23.55
2023-01-03T05:51:54.483Z,24.74
2023-01-03T05:54:22.408Z,22.24
2023-01-03T05:56:50.586Z,23.61
2023-01-03T05:59:17.676Z,23.91
2023-01-03T06:01:44.559Z,23.25
2023-01-03T06:04:11.390Z,22.32
2023-01-03T06:06:39.008Z,22.53
2023-01-03T06:09:05.831Z,23.76
2023-01-03T06:11:32.830Z,24.45
2023-01-03T06:13:59.523Z,28.08
2023-01-03T06:16:44.676Z,26.62
2023-01-03T06:19:11.934Z,26.09
2023-01-03T06:21:41.488Z,30.00
2023-01-03T06:24:09.595Z,25.71
2023-01-03T06:26:36.886Z,25.18
2023-01-03T06:29:05.132Z,24.29
2023-01-03T06:31:32.282Z,25.00
2023-01-03T06:33:59.260Z,23.19
2023-01-03T06:36:26.382Z,23.89
2023-01-03T06:38:54.719Z,24.37
2023-01-03T06:41:21.901Z,24.78
2023-01-03T06:43:49.563Z,25.12
2023-01-03T06:46:35.346Z,24.74
2023-01-03T06:49:20.275Z,25.10
2023-01-03T06:52:10.390Z,26.57
2023-01-03T06:54:38.204Z,26.16
2023-01-03T06:57:06.029Z,25.99
2023-01-03T06:59:33.260Z,25.43
2023-01-03T07:02:00.167Z,25.79
2023-01-03T07:04:27.255Z,28.57
2023-01-03T07:06:55.101Z,25.97
2023-01-03T07:09:21.868Z,25.60
2023-01-03T07:11:48.715Z,24.50
2023-01-03T07:14:15.576Z,23.34
2023-01-03T07:16:45.982Z,22.58
2023-01-03T07:19:15.306Z,22.54
2023-01-03T07:21:42.858Z,22.95
2023-01-03T07:24:13.175Z,22.77
2023-01-03T07:26:40.282Z,24.98
2023-01-03T07:29:09.612Z,25.50
2023-01-03T07:31:40.992Z,27.78
2023-01-03T07:34:09.602Z,24.62
2023-01-03T07:36:36.474Z,25.72
2023-01-03T07:39:03.685Z,25.38
2023-01-03T07:41:49.045Z,25.19
2023-01-03T07:44:15.802Z,25.91
2023-01-03T07:46:42.514Z,25.84
2023-01-03T07:49:12.172Z,24.35
2023-01-03T07:51:39.937Z,26.71
2023-01-03T07:54:08.080Z,24.67
2023-01-03T07:56:35.639Z,23.63
2023-01-03T07:59:02.995Z,23.21
2023-01-03T08:01:30.628Z,21.87
2023-01-03T08:03:57.766Z,24.33
2023-01-03T08:06:25.926Z,22.56
2023-01-03T08:09:12.077Z,22.77
2023-01-03T08:11:58.424Z,25.33
2023-01-03T08:14:27.242Z,23.62
2023-01-03T08:16:55.922Z,23.41
2023-01-03T08:19:25.011Z,24.05
2023-01-03T08:21:51.869Z,25.08
2023-01-03T08:24:18.572Z,24.36
2023-01-03T08:26:45.449Z,27.18
2023-01-03T08:29:12.567Z,24.36
2023-01-03T08:31:44.680Z,23.75
2023-01-03T08:34:18.453Z,24.61
2023-01-03T08:36:55.707Z,24.34
2023-01-03T08:39:26.891Z,24.77
2023-01-03T08:42:06.785Z,24.58
2023-01-03T08:44:34.619Z,24.57
2023-01-03T08:47:06.933Z,23.79
2023-01-03T08:49:35.174Z,24.77
2023-01-03T08:52:02.019Z,25.83
2023-01-03T08:54:28.742Z,25.11
2023-01-03T08:56:56.172Z,24.90
2023-01-03T08:59:22.935Z,27.02
2023-01-03T09:01:50.415Z,25.18
2023-01-03T09:04:17.266Z,25.19
2023-01-03T09:06:44.092Z,25.36
2023-01-03T09:09:11.410Z,24.63
2023-01-03T09:11:38.555Z,28.07
2023-01-03T09:14:05.455Z,26.25
2023-01-03T09:16:32.259Z,26.35
2023-01-03T09:19:00.055Z,23.57
2023-01-03T09:21:28.076Z,24.75
2023-01-03T09:23:56.414Z,25.32
2023-01-03T09:26:23.239Z,24.89
2023-01-03T09:28:51.099Z,24.18
2023-01-03T09:31:18.067Z,22.95
2023-01-03T09:33:45.386Z,23.61
2023-01-03T09:36:12.138Z,24.26
2023-01-03T09:38:39.102Z,24.07
2023-01-03T09:41:17.554Z,23.98
2023-01-03T09:43:49.260Z,23.94
2023-01-03T09:46:22.627Z,23.14
2023-01-03T09:48:50.467Z,23.52
2023-01-03T09:51:45.168Z,24.23
2023-01-03T09:54:52.091Z,24.12
2023-01-03T09:57:43.008Z,24.23
2023-01-03T10:00:36.058Z,23.94
2023-01-03T10:03:31.292Z,24.64
2023-01-03T10:06:24.331Z,24.78
2023-01-03T10:08:51.243Z,24.17
2023-01-03T10:11:26.632Z,24.78
2023-01-03T10:14:08.231Z,24.45
2023-01-03T10:16:53.682Z,25.02
2023-01-03T10:20:05.331Z,26.05
2023-01-03T10:22:33.235Z,24.09
2023-01-03T10:25:09.303Z,25.16
2023-01-03T10:27:48.640Z,23.99
2023-01-03T10:30:23.379Z,24.33
2023-01-03T10:33:32.228Z,26.04
2023-01-03T10:35:59.569Z,26.57
2023-01-03T10:38:27.211Z,26.00
2023-01-03T10:40:59.361Z,28.28
2023-01-03T10:43:30.164Z,24.79
2023-01-03T10:46:06.808Z,25.75
2023-01-03T10:49:17.434Z,25.36
2023-01-03T10:51:42.506Z,27.54
2023-01-03T10:54:46.867Z,24.42
2023-01-03T10:57:35.201Z,23.97
2023-01-03T11:00:02.161Z,25.57
2023-01-03T11:02:29.065Z,25.57
2023-01-03T11:05:12.771Z,25.21
2023-01-03T11:07:54.862Z,28.22
2023-01-03T11:10:24.030Z,24.46
2023-01-03T11:12:51.616Z,24.16
2023-01-03T11:15:24.139Z,26.55
2023-01-03T11:17:54.133Z,25.78
2023-01-03T11:20:27.896Z,27.21
2023-01-03T11:23:02.246Z,26.23
2023-01-03T11:25:43.853Z,26.40
2023-01-03T11:28:36.156Z,25.04
2023-01-03T11:31:30.511Z,28.01
2023-01-03T11:34:13.356Z,25.38
2023-01-03T11:36:50.553Z,25.10
2023-01-03T11:39:28.318Z,25.37
2023-01-03T11:42:16.551Z,25.08
2023-01-03T11:44:43.233Z,25.83
2023-01-03T11:47:25.107Z,25.39
2023-01-03T11:50:11.416Z,28.31
2023-01-03T11:52:53.686Z,28.99
2023-01-03T11:55:48.732Z,28.35
2023-01-03T11:58:18.320Z,27.38
2023-01-03T12:00:58.703Z,29.34
2023-01-03T12:03:25.438Z,26.28
2023-01-03T12:06:13.647Z,24.60
2023-01-03T12:08:52.436Z,24.79
2023-01-03T12:11:50.014Z,25.85
2023-01-03T12:14:23.610Z,24.50
2023-01-03T12:17:13.571Z,23.95
2023-01-03T12:19:50.960Z,25.68
2023-01-03T12:22:20.772Z,24.34
2023-01-03T12:25:05.016Z,25.68
2023-01-03T12:27:55.538Z,25.86
2023-01-03T12:30:40.478Z,25.92
2023-01-03T12:33:22.119Z,24.47
2023-01-03T12:35:58.106Z,24.03
2023-01-03T12:38:34.274Z,25.78
2023-01-03T12:41:22.461Z,25.90
2023-01-03T12:43:54.574Z,24.82
2023-01-03T12:46:28.846Z,27.31
2023-01-03T12:49:48.256Z,27.34
2023-01-03T12:52:18.409Z,25.70
2023-01-03T12:54:53.641Z,24.64
2023-01-03T12:57:39.136Z,26.39
2023-01-03T13:00:23.579Z,24.26
2023-01-03T13:03:18.878Z,26.27
2023-01-03T13:06:23.892Z,24.31
2023-01-03T13:09:00.288Z,26.55
2023-01-03T13:11:44.007Z,24.34
2023-01-03T13:14:27.421Z,28.14
2023-01-03T13:17:18.293Z,25.96
2023-01-03T13:19:54.951Z,26.47
2023-01-03T13:22:46.697Z,26.04
2023-01-03T13:25:34.405Z,24.74
2023-01-03T13:28:24.815Z,25.35
2023-01-03T13:31:14.698Z,24.60
2023-01-03T13:34:09.729Z,25.19
2023-01-03T13:37:07.631Z,24.39
2023-01-03T13:39:46.288Z,23.20
2023-01-03T13:42:28.779Z,24.11
2023-01-03T13:45:15.849Z,24.54
2023-01-03T13:47:54.454Z,23.87
2023-01-03T13:50:29.418Z,23.75
2023-01-03T13:52:59.684Z,23.53
2023-01-03T13:56:22.706Z,23.82
2023-01-03T13:59:12.820Z,24.24
2023-01-03T14:01:56.786Z,23.24
2023-01-03T14:04:36.775Z,23.08
2023-01-03T14:07:03.911Z,23.66
2023-01-03T14:09:43.090Z,23.73
2023-01-03T14:12:31.185Z,27.83
2023-01-03T14:14:58.111Z,23.90
2023-01-03T14:17:33.270Z,25.19
2023-01-03T14:20:06.169Z,23.53
2023-01-03T14:22:48.386Z,26.05
2023-01-03T14:25:42.233Z,24.48
2023-01-03T14:28:29.479Z,25.64
2023-01-03T14:30:56.453Z,25.54
2023-01-03T14:33:25.783Z,24.71
2023-01-03T14:36:14.719Z,24.02
2023-01-03T14:38:48.430Z,23.34
2023-01-03T14:41:39.048Z,22.94
2023-01-03T14:44:15.216Z,23.36
2023-01-03T14:46:53.529Z,24.34
2023-01-03T14:49:33.051Z,23.77
2023-01-03T14:52:07.379Z,23.37
2023-01-03T14:54:36.117Z,23.27
2023-01-03T14:57:04.979Z,24.04
2023-01-03T14:59:33.438Z,23.25
2023-01-03T15:02:00.871Z,23.46
2023-01-03T15:04:28.867Z,23.74
2023-01-03T15:07:08.041Z,24.50
2023-01-03T15:09:38.882Z,25.73
2023-01-03T15:12:06.523Z,25.20
2023-01-03T15:14:36.536Z,24.79
2023-01-03T15:17:08.045Z,24.31
2023-01-03T15:19:37.705Z,24.18
2023-01-03T15:22:26.235Z,24.59
2023-01-03T15:25:04.972Z,23.09
2023-01-03T15:27:38.470Z,23.28
2023-01-03T15:30:23.824Z,24.09
2023-01-03T15:33:05.138Z,24.34
2023-01-03T15:35:31.924Z,23.10
2023-01-03T15:38:01.581Z,23.09
2023-01-03T15:40:31.621Z,23.58
2023-01-03T15:43:23.995Z,23.18
2023-01-03T15:46:00.699Z,23.26
2023-01-03T15:48:31.231Z,24.38
2023-01-03T15:51:00.251Z,23.90
2023-01-03T15:53:42.776Z,25.96
2023-01-03T15:56:35.585Z,26.03
2023-01-03T15:59:08.099Z,23.94
2023-01-03T16:01:35.379Z,23.88
2023-01-03T16:04:02.267Z,23.85
2023-01-03T16:06:29.274Z,24.13
2023-01-03T16:08:56.345Z,23.42
2023-01-03T16:11:31.400Z,23.59
2023-01-03T16:14:04.816Z,23.31
2023-01-03T16:16:36.383Z,23.60
2023-01-03T16:19:05.441Z,23.94
2023-01-03T16:21:32.804Z,24.89
2023-01-03T16:24:02.772Z,23.15
2023-01-03T16:26:29.953Z,23.06
2023-01-03T16:28:56.812Z,23.21
2023-01-03T16:31:31.903Z,23.24
2023-01-03T16:33:59.769Z,23.44
2023-01-03T16:36:37.442Z,25.18
2023-01-03T16:39:10.147Z,29.17
2023-01-03T16:41:36.874Z,27.50
2023-01-03T16:44:03.811Z,26.46
2023-01-03T16:46:31.774Z,24.34
2023-01-03T16:49:00.549Z,24.81
2023-01-03T16:51:32.684Z,25.04
2023-01-03T16:54:03.702Z,24.90
2023-01-03T16:56:31.454Z,25.76
2023-01-03T16:58:58.743Z,25.46
2023-01-03T17:01:26.321Z,24.59
2023-01-03T17:03:53.303Z,25.95
2023-01-03T17:06:37.393Z,24.76
2023-01-03T17:09:14.057Z,25.13
2023-01-03T17:11:41.111Z,24.08
2023-01-03T17:14:16.883Z,24.57
2023-01-03T17:16:45.622Z,25.42
2023-01-03T17:22:24.093Z,26.01
2023-01-03T17:24:52.271Z,25.87
2023-01-03T17:27:32.053Z,27.36
2023-01-03T17:30:03.622Z,26.01
2023-01-03T17:32:31.438Z,24.24
2023-01-03T17:34:58.706Z,24.26
2023-01-03T17:37:26.064Z,23.70
2023-01-03T17:39:56.034Z,26.20
2023-01-03T17:42:24.711Z,24.71
2023-01-03T17:45:13.281Z,24.75
2023-01-03T17:48:02.480Z,24.08
2023-01-03T17:50:32.556Z,24.08
2023-01-03T17:53:02.335Z,23.44
2023-01-03T17:55:31.485Z,24.00
2023-01-03T17:58:03.430Z,26.97
2023-01-03T18:00:32.056Z,25.74
2023-01-03T18:03:02.777Z,24.12
2023-01-03T18:05:30.842Z,23.26
2023-01-03T18:08:00.876Z,23.94
2023-01-03T18:10:46.908Z,23.54
2023-01-03T18:13:27.712Z,24.03
2023-01-03T18:15:55.994Z,25.65
2023-01-03T18:18:24.864Z,25.68
2023-01-03T18:20:52.766Z,25.14
2023-01-03T18:23:26.158Z,24.32
2023-01-03T18:25:53.378Z,23.80
2023-01-03T18:28:25.875Z,23.15
2023-01-03T18:30:53.637Z,25.82
2023-01-03T18:33:20.873Z,24.05
2023-01-03T18:35:48.635Z,24.43
2023-01-03T18:38:32.320Z,23.81
2023-01-03T18:41:05.089Z,24.92
2023-01-03T18:43:33.773Z,27.32
2023-01-03T18:46:01.239Z,24.81
2023-01-03T18:48:28.845Z,25.56
2023-01-03T18:50:59.515Z,24.05
2023-01-03T18:53:31.983Z,23.15
2023-01-03T19:00:26.411Z,24.72
2023-01-03T19:02:53.859Z,23.45
2023-01-03T19:05:21.645Z,24.83
2023-01-03T19:07:51.325Z,26.14
2023-01-03T19:10:21.564Z,25.21
2023-01-03T19:12:50.363Z,27.18
2023-01-03T19:15:23.632Z,27.66
2023-01-03T19:17:50.319Z,25.08
2023-01-03T19:20:23.178Z,23.80
2023-01-03T19:22:54.234Z,23.62
2023-01-03T19:25:30.367Z,23.15
2023-01-03T19:27:59.718Z,26.59
2023-01-03T19:30:41.794Z,28.69
2023-01-03T19:33:15.405Z,26.20
2023-01-03T19:35:43.600Z,26.89
2023-01-03T19:38:10.810Z,27.97
2023-01-03T19:40:40.764Z,25.81
2023-01-03T19:43:07.739Z,24.10
2023-01-03T19:45:41.618Z,27.53
2023-01-03T19:48:22.811Z,27.50
2023-01-03T19:50:50.820Z,26.78
2023-01-03T19:53:19.038Z,24.01
2023-01-03T19:55:48.896Z,23.80
2023-01-03T19:58:27.189Z,25.56
2023-01-03T20:00:55.091Z,28.08
2023-01-03T20:03:39.356Z,24.85
2023-01-03T20:06:10.046Z,25.56
2023-01-03T20:08:37.181Z,24.38
2023-01-03T20:11:04.392Z,25.70
2023-01-03T20:13:32.433Z,25.30
2023-01-03T20:16:02.352Z,24.54
2023-01-03T20:18:37.011Z,24.50
2023-01-03T20:21:08.482Z,25.15
2023-01-03T20:23:40.097Z,23.16
2023-01-03T20:26:13.814Z,23.38
2023-01-03T20:28:40.535Z,26.24
2023-01-03T20:31:09.170Z,25.08
2023-01-03T20:33:35.932Z,25.01
2023-01-03T20:36:16.251Z,26.81
2023-01-03T20:38:49.435Z,27.50
2023-01-03T20:41:18.073Z,30.14
2023-01-03T20:43:47.843Z,30.60
2023-01-03T20:46:21.289Z,26.97
2023-01-03T20:49:27.620Z,30.44
2023-01-03T20:51:54.881Z,27.85
2023-01-03T20:54:22.124Z,26.04
2023-01-03T20:56:49.385Z,26.54
2023-01-03T20:59:18.792Z,25.64
2023-01-03T21:01:49.101Z,25.31
2023-01-03T21:04:16.639Z,25.80
2023-01-03T21:06:46.339Z,26.18
2023-01-03T21:09:14.376Z,28.20
2023-01-03T21:11:41.874Z,28.47
2023-01-03T21:14:10.200Z,27.68
2023-01-03T21:16:46.486Z,27.09
2023-01-03T21:19:20.131Z,27.50
2023-01-03T21:21:52.668Z,28.89
2023-01-03T21:24:23.085Z,25.83
2023-01-03T21:26:50.837Z,24.64
2023-01-03T21:29:18.478Z,25.90
2023-01-03T21:31:45.720Z,29.28
2023-01-03T21:34:21.832Z,26.06
2023-01-03T21:36:49.599Z,27.08
2023-01-03T21:39:16.949Z,25.10
2023-01-03T21:42:03.755Z,24.65
2023-01-03T21:44:30.796Z,24.89
2023-01-03T21:46:57.974Z,24.89
2023-01-03T21:49:25.126Z,24.19
2023-01-03T21:51:52.016Z,24.55
2023-01-03T21:54:19.459Z,25.81
2023-01-03T21:56:47.009Z,28.17
2023-01-03T21:59:16.106Z,28.12
2023-01-03T22:02:03.821Z,26.22
2023-01-03T22:04:31.882Z,24.78
2023-01-03T22:07:02.508Z,24.52
2023-01-03T22:09:50.672Z,25.39
2023-01-03T22:12:19.387Z,23.59
2023-01-03T22:14:46.596Z,25.73
2023-01-03T22:17:14.730Z,24.07
2023-01-03T22:19:41.462Z,27.57
2023-01-03T22:22:08.384Z,24.88
2023-01-03T22:24:35.582Z,28.09
2023-01-03T22:27:02.532Z,28.66
2023-01-03T22:29:29.681Z,31.47
2023-01-03T22:31:56.503Z,27.79
2023-01-03T22:34:23.522Z,27.44
2023-01-03T22:36:50.845Z,27.99
2023-01-03T22:39:17.651Z,28.65
2023-01-03T22:41:45.141Z,27.73
2023-01-03T22:44:11.974Z,26.99
2023-01-03T22:46:39.188Z,26.03
2023-01-03T22:49:05.942Z,25.47
2023-01-03T22:51:32.650Z,26.12
2023-01-03T22:53:59.740Z,26.21
2023-01-03T22:56:26.458Z,25.07
2023-01-03T22:58:53.251Z,28.46
2023-01-03T23:01:27.968Z,28.66
2023-01-03T23:04:00.264Z,28.05
2023-01-03T23:06:29.496Z,27.77
2023-01-03T23:08:56.444Z,28.22
2023-01-03T23:11:44.644Z,25.37
2023-01-03T23:14:14.460Z,29.14
2023-01-03T23:16:41.341Z,29.28
2023-01-03T23:19:14.481Z,29.34
2023-01-03T23:21:42.116Z,27.52
2023-01-03T23:24:14.518Z,27.27
2023-01-03T23:26:41.317Z,26.06
2023-01-03T23:29:09.629Z,26.74
2023-01-03T23:31:36.653Z,24.04
2023-01-03T23:34:03.388Z,26.16
2023-01-03T23:36:30.148Z,25.10
2023-01-03T23:38:56.935Z,26.68
2023-01-03T23:41:23.649Z,23.67
2023-01-03T23:43:51.244Z,24.86
2023-01-03T23:46:20.465Z,23.81
2023-01-03T23:48:47.801Z,24.10
2023-01-03T23:51:15.819Z,23.91
2023-01-03T23:53:43.867Z,23.47
2023-01-03T23:56:16.842Z,23.95
2023-01-03T23:58:44.994Z,24.15
